sensor_id;sensor_type;location;lat;lon;timestamp;P1;durP1;ratioP1;P2;durP2;ratioP2
6547;SDS011;3307;52.416;16.862;2023-04-15T00:01:23;10.60;;;9.50;;
6547;SDS011;3307;52.416;16.862;2023-04-15T00:03:52;9.97;;;9.07;;
6547;SDS011;3307;52.416;16.862;2023-04-15T00:06:18;10.32;;;9.32;;
6547;SDS011;3307;52.416;16.862;2023-04-15T00:08:45;12.15;;;9.43;;
6547;SDS011;3307;52.416;16.862;2023-04-15T00:11:10;12.53;;;9.10;;
6547;SDS011;3307;52.416;16.862;2023-04-15T00:13:36;10.77;;;9.47;;
6547;SDS011;3307;52.416;16.862;2023-04-15T00:16:02;10.03;;;9.00;;
6547;SDS011;3307;52.416;16.862;2023-04-15T00:18:28;10.63;;;9.60;;
6547;SDS011;3307;52.416;16.862;2023-04-15T00:20:54;10.23;;;9.20;;
6547;SDS011;3307;52.416;16.862;2023-04-15T00:23:19;9.80;;;8.90;;
6547;SDS011;3307;52.416;16.862;2023-04-15T00:25:45;9.47;;;8.63;;
6547;SDS011;3307;52.416;16.862;2023-04-15T00:28:10;9.47;;;8.57;;
6547;SDS011;3307;52.416;16.862;2023-04-15T00:30:36;10.70;;;9.60;;
6547;SDS011;3307;52.416;16.862;2023-04-15T00:33:02;11.93;;;10.67;;
6547;SDS011;3307;52.416;16.862;2023-04-15T00:35:27;9.73;;;8.03;;
6547;SDS011;3307;52.416;16.862;2023-04-15T00:37:53;9.53;;;8.73;;
6547;SDS011;3307;52.416;16.862;2023-04-15T00:40:20;10.47;;;9.30;;
6547;SDS011;3307;52.416;16.862;2023-04-15T00:42:46;10.68;;;9.68;;
6547;SDS011;3307;52.416;16.862;2023-04-15T00:45:11;11.17;;;9.50;;
6547;SDS011;3307;52.416;16.862;2023-04-15T00:47:37;12.23;;;10.17;;
6547;SDS011;3307;52.416;16.862;2023-04-15T00:50:03;10.60;;;9.60;;
6547;SDS011;3307;52.416;16.862;2023-04-15T00:52:29;11.77;;;10.03;;
6547;SDS011;3307;52.416;16.862;2023-04-15T00:54:55;12.10;;;10.87;;
6547;SDS011;3307;52.416;16.862;2023-04-15T00:57:20;11.70;;;10.00;;
6547;SDS011;3307;52.416;16.862;2023-04-15T00:59:46;11.18;;;10.07;;
6547;SDS011;3307;52.416;16.862;2023-04-15T01:02:12;11.37;;;10.00;;
6547;SDS011;3307;52.416;16.862;2023-04-15T01:04:37;25.87;;;10.30;;
6547;SDS011;3307;52.416;16.862;2023-04-15T01:07:03;10.97;;;9.70;;
6547;SDS011;3307;52.416;16.862;2023-04-15T01:09:28;11.57;;;10.40;;
6547;SDS011;3307;52.416;16.862;2023-04-15T01:11:54;12.60;;;9.80;;
6547;SDS011;3307;52.416;16.862;2023-04-15T01:14:19;10.80;;;9.77;;
6547;SDS011;3307;52.416;16.862;2023-04-15T01:16:45;12.67;;;10.07;;
6547;SDS011;3307;52.416;16.862;2023-04-15T01:19:10;10.53;;;9.03;;
6547;SDS011;3307;52.416;16.862;2023-04-15T01:21:37;11.38;;;10.18;;
6547;SDS011;3307;52.416;16.862;2023-04-15T01:24:05;10.65;;;9.65;;
6547;SDS011;3307;52.416;16.862;2023-04-15T01:26:33;10.85;;;9.85;;
6547;SDS011;3307;52.416;16.862;2023-04-15T01:28:59;11.32;;;10.20;;
6547;SDS011;3307;52.416;16.862;2023-04-15T01:31:25;11.10;;;10.10;;
6547;SDS011;3307;52.416;16.862;2023-04-15T01:33:51;10.87;;;9.87;;
6547;SDS011;3307;52.416;16.862;2023-04-15T01:36:16;11.00;;;9.90;;
6547;SDS011;3307;52.416;16.862;2023-04-15T01:38:42;10.77;;;9.67;;
6547;SDS011;3307;52.416;16.862;2023-04-15T01:41:07;11.10;;;10.10;;
6547;SDS011;3307;52.416;16.862;2023-04-15T01:43:33;11.80;;;10.60;;
6547;SDS011;3307;52.416;16.862;2023-04-15T01:46:00;11.10;;;10.00;;
6547;SDS011;3307;52.416;16.862;2023-04-15T01:48:25;13.23;;;9.73;;
6547;SDS011;3307;52.416;16.862;2023-04-15T01:50:51;10.80;;;9.20;;
6547;SDS011;3307;52.416;16.862;2023-04-15T01:53:18;10.95;;;9.85;;
6547;SDS011;3307;52.416;16.862;2023-04-15T01:55:43;12.17;;;10.90;;
6547;SDS011;3307;52.416;16.862;2023-04-15T01:58:09;12.07;;;10.43;;
6547;SDS011;3307;52.416;16.862;2023-04-15T02:00:35;11.00;;;9.90;;
6547;SDS011;3307;52.416;16.862;2023-04-15T02:03:00;11.03;;;9.87;;
6547;SDS011;3307;52.416;16.862;2023-04-15T02:05:26;11.27;;;10.17;;
6547;SDS011;3307;52.416;16.862;2023-04-15T02:07:51;10.80;;;9.80;;
6547;SDS011;3307;52.416;16.862;2023-04-15T02:10:17;10.38;;;9.48;;
6547;SDS011;3307;52.416;16.862;2023-04-15T02:12:43;10.20;;;9.20;;
6547;SDS011;3307;52.416;16.862;2023-04-15T02:15:09;10.20;;;9.20;;
6547;SDS011;3307;52.416;16.862;2023-04-15T02:17:35;10.00;;;9.10;;
6547;SDS011;3307;52.416;16.862;2023-04-15T02:20:01;12.38;;;9.82;;
6547;SDS011;3307;52.416;16.862;2023-04-15T02:22:30;10.13;;;8.93;;
6547;SDS011;3307;52.416;16.862;2023-04-15T02:24:55;10.60;;;9.60;;
6547;SDS011;3307;52.416;16.862;2023-04-15T02:27:20;12.00;;;9.90;;
6547;SDS011;3307;52.416;16.862;2023-04-15T02:29:46;11.57;;;10.40;;
6547;SDS011;3307;52.416;16.862;2023-04-15T02:32:12;10.20;;;9.30;;
6547;SDS011;3307;52.416;16.862;2023-04-15T02:34:38;11.15;;;9.55;;
6547;SDS011;3307;52.416;16.862;2023-04-15T02:37:08;10.48;;;9.20;;
6547;SDS011;3307;52.416;16.862;2023-04-15T02:39:35;10.82;;;9.73;;
6547;SDS011;3307;52.416;16.862;2023-04-15T02:42:02;11.52;;;10.27;;
6547;SDS011;3307;52.416;16.862;2023-04-15T02:44:27;10.80;;;9.37;;
6547;SDS011;3307;52.416;16.862;2023-04-15T02:46:53;12.03;;;10.00;;
6547;SDS011;3307;52.416;16.862;2023-04-15T02:49:21;10.37;;;9.27;;
6547;SDS011;3307;52.416;16.862;2023-04-15T02:51:47;11.13;;;9.95;;
6547;SDS011;3307;52.416;16.862;2023-04-15T02:54:14;11.38;;;10.27;;
6547;SDS011;3307;52.416;16.862;2023-04-15T02:56:41;11.02;;;9.85;;
6547;SDS011;3307;52.416;16.862;2023-04-15T02:59:06;11.53;;;10.33;;
6547;SDS011;3307;52.416;16.862;2023-04-15T03:01:31;11.00;;;10.03;;
6547;SDS011;3307;52.416;16.862;2023-04-15T03:03:57;10.60;;;9.60;;
6547;SDS011;3307;52.416;16.862;2023-04-15T03:06:22;11.97;;;10.80;;
6547;SDS011;3307;52.416;16.862;2023-04-15T03:08:48;11.90;;;10.80;;
6547;SDS011;3307;52.416;16.862;2023-04-15T03:11:14;11.70;;;10.50;;
6547;SDS011;3307;52.416;16.862;2023-04-15T03:13:40;12.00;;;10.57;;
6547;SDS011;3307;52.416;16.862;2023-04-15T03:16:07;12.13;;;10.90;;
6547;SDS011;3307;52.416;16.862;2023-04-15T03:18:33;12.30;;;11.00;;
6547;SDS011;3307;52.416;16.862;2023-04-15T03:20:58;13.30;;;11.90;;
6547;SDS011;3307;52.416;16.862;2023-04-15T03:23:24;11.47;;;10.27;;
6547;SDS011;3307;52.416;16.862;2023-04-15T03:25:49;12.80;;;11.50;;
6547;SDS011;3307;52.416;16.862;2023-04-15T03:28:15;12.80;;;11.47;;
6547;SDS011;3307;52.416;16.862;2023-04-15T03:30:40;12.17;;;10.90;;
6547;SDS011;3307;52.416;16.862;2023-04-15T03:33:06;13.13;;;11.93;;
6547;SDS011;3307;52.416;16.862;2023-04-15T03:35:31;12.60;;;11.33;;
6547;SDS011;3307;52.416;16.862;2023-04-15T03:37:56;13.13;;;11.80;;
6547;SDS011;3307;52.416;16.862;2023-04-15T03:40:22;14.60;;;11.67;;
6547;SDS011;3307;52.416;16.862;2023-04-15T03:42:47;13.00;;;11.70;;
6547;SDS011;3307;52.416;16.862;2023-04-15T03:45:13;13.03;;;11.70;;
6547;SDS011;3307;52.416;16.862;2023-04-15T03:47:38;12.97;;;11.77;;
6547;SDS011;3307;52.416;16.862;2023-04-15T03:50:04;14.03;;;12.63;;
6547;SDS011;3307;52.416;16.862;2023-04-15T03:52:29;13.87;;;12.53;;
6547;SDS011;3307;52.416;16.862;2023-04-15T03:54:55;13.77;;;12.47;;
6547;SDS011;3307;52.416;16.862;2023-04-15T03:57:20;15.10;;;13.50;;
6547;SDS011;3307;52.416;16.862;2023-04-15T03:59:46;14.20;;;12.80;;
6547;SDS011;3307;52.416;16.862;2023-04-15T04:02:11;14.07;;;12.63;;
6547;SDS011;3307;52.416;16.862;2023-04-15T04:04:37;14.83;;;13.17;;
6547;SDS011;3307;52.416;16.862;2023-04-15T04:07:02;14.70;;;13.33;;
6547;SDS011;3307;52.416;16.862;2023-04-15T04:09:27;16.53;;;15.00;;
6547;SDS011;3307;52.416;16.862;2023-04-15T04:11:53;15.13;;;13.63;;
6547;SDS011;3307;52.416;16.862;2023-04-15T04:14:18;14.70;;;13.20;;
6547;SDS011;3307;52.416;16.862;2023-04-15T04:16:44;16.97;;;15.27;;
6547;SDS011;3307;52.416;16.862;2023-04-15T04:19:09;16.63;;;15.00;;
6547;SDS011;3307;52.416;16.862;2023-04-15T04:21:35;16.50;;;14.90;;
6547;SDS011;3307;52.416;16.862;2023-04-15T04:24:01;16.97;;;15.27;;
6547;SDS011;3307;52.416;16.862;2023-04-15T04:26:26;18.70;;;16.63;;
6547;SDS011;3307;52.416;16.862;2023-04-15T04:28:51;15.87;;;14.37;;
6547;SDS011;3307;52.416;16.862;2023-04-15T04:31:17;17.97;;;16.13;;
6547;SDS011;3307;52.416;16.862;2023-04-15T04:33:42;17.53;;;15.73;;
6547;SDS011;3307;52.416;16.862;2023-04-15T04:36:08;17.90;;;16.20;;
6547;SDS011;3307;52.416;16.862;2023-04-15T04:38:33;18.30;;;16.53;;
6547;SDS011;3307;52.416;16.862;2023-04-15T04:40:59;17.57;;;15.67;;
6547;SDS011;3307;52.416;16.862;2023-04-15T04:43:24;17.20;;;15.60;;
6547;SDS011;3307;52.416;16.862;2023-04-15T04:45:51;18.10;;;16.30;;
6547;SDS011;3307;52.416;16.862;2023-04-15T04:48:16;18.00;;;16.40;;
6547;SDS011;3307;52.416;16.862;2023-04-15T04:50:42;16.83;;;15.23;;
6547;SDS011;3307;52.416;16.862;2023-04-15T04:53:08;18.60;;;16.80;;
6547;SDS011;3307;52.416;16.862;2023-04-15T04:55:34;17.53;;;15.83;;
6547;SDS011;3307;52.416;16.862;2023-04-15T04:58:01;19.02;;;17.10;;
6547;SDS011;3307;52.416;16.862;2023-04-15T05:00:26;18.17;;;16.40;;
6547;SDS011;3307;52.416;16.862;2023-04-15T05:02:52;19.23;;;17.33;;
6547;SDS011;3307;52.416;16.862;2023-04-15T05:05:17;18.30;;;16.30;;
6547;SDS011;3307;52.416;16.862;2023-04-15T05:07:43;18.87;;;17.17;;
6547;SDS011;3307;52.416;16.862;2023-04-15T05:10:08;18.37;;;16.57;;
6547;SDS011;3307;52.416;16.862;2023-04-15T05:12:34;19.60;;;17.60;;
6547;SDS011;3307;52.416;16.862;2023-04-15T05:15:01;19.13;;;17.35;;
6547;SDS011;3307;52.416;16.862;2023-04-15T05:17:26;19.70;;;17.70;;
6547;SDS011;3307;52.416;16.862;2023-04-15T05:19:52;19.63;;;17.57;;
6547;SDS011;3307;52.416;16.862;2023-04-15T05:22:17;18.90;;;17.00;;
6547;SDS011;3307;52.416;16.862;2023-04-15T05:24:43;18.00;;;16.30;;
6547;SDS011;3307;52.416;16.862;2023-04-15T05:27:08;17.50;;;15.90;;
6547;SDS011;3307;52.416;16.862;2023-04-15T05:29:35;20.60;;;18.40;;
6547;SDS011;3307;52.416;16.862;2023-04-15T05:32:00;19.10;;;17.17;;
6547;SDS011;3307;52.416;16.862;2023-04-15T05:34:26;20.07;;;18.00;;
6547;SDS011;3307;52.416;16.862;2023-04-15T05:36:51;18.67;;;16.90;;
6547;SDS011;3307;52.416;16.862;2023-04-15T05:39:17;17.77;;;15.80;;
6547;SDS011;3307;52.416;16.862;2023-04-15T05:41:42;18.03;;;16.33;;
6547;SDS011;3307;52.416;16.862;2023-04-15T05:44:08;17.10;;;15.50;;
6547;SDS011;3307;52.416;16.862;2023-04-15T05:46:34;18.17;;;16.43;;
6547;SDS011;3307;52.416;16.862;2023-04-15T05:48:59;19.43;;;16.93;;
6547;SDS011;3307;52.416;16.862;2023-04-15T05:51:25;17.50;;;15.80;;
6547;SDS011;3307;52.416;16.862;2023-04-15T05:53:50;18.00;;;16.20;;
6547;SDS011;3307;52.416;16.862;2023-04-15T05:56:15;18.50;;;16.70;;
6547;SDS011;3307;52.416;16.862;2023-04-15T05:58:41;18.47;;;16.63;;
6547;SDS011;3307;52.416;16.862;2023-04-15T06:01:07;18.27;;;16.37;;
6547;SDS011;3307;52.416;16.862;2023-04-15T06:03:32;19.63;;;17.53;;
6547;SDS011;3307;52.416;16.862;2023-04-15T06:05:58;18.57;;;16.87;;
6547;SDS011;3307;52.416;16.862;2023-04-15T06:08:24;17.52;;;15.93;;
6547;SDS011;3307;52.416;16.862;2023-04-15T06:10:50;19.20;;;17.40;;
6547;SDS011;3307;52.416;16.862;2023-04-15T06:13:15;18.20;;;16.30;;
6547;SDS011;3307;52.416;16.862;2023-04-15T06:15:41;18.70;;;16.90;;
6547;SDS011;3307;52.416;16.862;2023-04-15T06:18:07;17.03;;;15.43;;
6547;SDS011;3307;52.416;16.862;2023-04-15T06:20:32;16.90;;;15.30;;
6547;SDS011;3307;52.416;16.862;2023-04-15T06:22:58;17.60;;;15.80;;
6547;SDS011;3307;52.416;16.862;2023-04-15T06:25:23;17.43;;;15.73;;
6547;SDS011;3307;52.416;16.862;2023-04-15T06:27:48;17.00;;;15.37;;
6547;SDS011;3307;52.416;16.862;2023-04-15T06:30:14;18.67;;;16.83;;
6547;SDS011;3307;52.416;16.862;2023-04-15T06:32:40;17.53;;;15.67;;
6547;SDS011;3307;52.416;16.862;2023-04-15T06:35:05;17.13;;;15.53;;
6547;SDS011;3307;52.416;16.862;2023-04-15T06:37:31;18.63;;;15.47;;
6547;SDS011;3307;52.416;16.862;2023-04-15T06:39:56;16.73;;;15.07;;
6547;SDS011;3307;52.416;16.862;2023-04-15T06:42:22;18.03;;;15.23;;
6547;SDS011;3307;52.416;16.862;2023-04-15T06:44:47;16.10;;;14.60;;
6547;SDS011;3307;52.416;16.862;2023-04-15T06:47:13;15.20;;;13.60;;
6547;SDS011;3307;52.416;16.862;2023-04-15T06:49:39;15.32;;;13.82;;
6547;SDS011;3307;52.416;16.862;2023-04-15T06:52:05;16.10;;;14.70;;
6547;SDS011;3307;52.416;16.862;2023-04-15T06:54:30;16.03;;;14.53;;
6547;SDS011;3307;52.416;16.862;2023-04-15T06:56:56;14.13;;;12.83;;
6547;SDS011;3307;52.416;16.862;2023-04-15T06:59:21;15.43;;;13.93;;
6547;SDS011;3307;52.416;16.862;2023-04-15T07:01:46;14.80;;;13.40;;
6547;SDS011;3307;52.416;16.862;2023-04-15T07:04:12;13.87;;;12.57;;
6547;SDS011;3307;52.416;16.862;2023-04-15T07:06:37;15.17;;;13.77;;
6547;SDS011;3307;52.416;16.862;2023-04-15T07:09:03;14.87;;;13.57;;
6547;SDS011;3307;52.416;16.862;2023-04-15T07:11:29;16.03;;;14.50;;
6547;SDS011;3307;52.416;16.862;2023-04-15T07:13:54;14.03;;;12.63;;
6547;SDS011;3307;52.416;16.862;2023-04-15T07:16:21;14.15;;;12.77;;
6547;SDS011;3307;52.416;16.862;2023-04-15T07:18:47;14.10;;;12.80;;
6547;SDS011;3307;52.416;16.862;2023-04-15T07:21:12;15.43;;;13.93;;
6547;SDS011;3307;52.416;16.862;2023-04-15T07:23:37;17.20;;;14.37;;
6547;SDS011;3307;52.416;16.862;2023-04-15T07:26:03;14.97;;;13.67;;
6547;SDS011;3307;52.416;16.862;2023-04-15T07:28:28;14.80;;;13.40;;
6547;SDS011;3307;52.416;16.862;2023-04-15T07:30:54;15.13;;;13.67;;
6547;SDS011;3307;52.416;16.862;2023-04-15T07:33:21;16.38;;;14.88;;
6547;SDS011;3307;52.416;16.862;2023-04-15T07:35:47;16.40;;;15.00;;
6547;SDS011;3307;52.416;16.862;2023-04-15T07:38:12;16.93;;;15.47;;
6547;SDS011;3307;52.416;16.862;2023-04-15T07:40:38;16.57;;;14.87;;
6547;SDS011;3307;52.416;16.862;2023-04-15T07:43:04;16.73;;;15.18;;
6547;SDS011;3307;52.416;16.862;2023-04-15T07:45:30;15.23;;;13.87;;
6547;SDS011;3307;52.416;16.862;2023-04-15T07:47:56;15.85;;;14.25;;
6547;SDS011;3307;52.416;16.862;2023-04-15T07:50:22;15.17;;;13.47;;
6547;SDS011;3307;52.416;16.862;2023-04-15T07:52:48;16.20;;;14.60;;
6547;SDS011;3307;52.416;16.862;2023-04-15T07:55:14;17.17;;;15.57;;
6547;SDS011;3307;52.416;16.862;2023-04-15T07:57:43;15.77;;;14.27;;
6547;SDS011;3307;52.416;16.862;2023-04-15T08:00:09;15.67;;;14.27;;
6547;SDS011;3307;52.416;16.862;2023-04-15T08:02:35;17.02;;;15.38;;
6547;SDS011;3307;52.416;16.862;2023-04-15T08:05:01;16.50;;;15.00;;
6547;SDS011;3307;52.416;16.862;2023-04-15T08:07:28;17.00;;;15.30;;
6547;SDS011;3307;52.416;16.862;2023-04-15T08:09:54;15.73;;;14.40;;
6547;SDS011;3307;52.416;16.862;2023-04-15T08:12:20;16.67;;;15.27;;
6547;SDS011;3307;52.416;16.862;2023-04-15T08:14:45;16.90;;;15.20;;
6547;SDS011;3307;52.416;16.862;2023-04-15T08:17:11;17.13;;;15.57;;
6547;SDS011;3307;52.416;16.862;2023-04-15T08:19:36;14.77;;;13.50;;
6547;SDS011;3307;52.416;16.862;2023-04-15T08:22:02;15.83;;;14.40;;
6547;SDS011;3307;52.416;16.862;2023-04-15T08:24:27;15.23;;;13.73;;
6547;SDS011;3307;52.416;16.862;2023-04-15T08:26:53;15.73;;;14.23;;
6547;SDS011;3307;52.416;16.862;2023-04-15T08:29:18;14.60;;;13.27;;
6547;SDS011;3307;52.416;16.862;2023-04-15T08:31:44;15.13;;;13.73;;
6547;SDS011;3307;52.416;16.862;2023-04-15T08:34:12;15.37;;;13.97;;
6547;SDS011;3307;52.416;16.862;2023-04-15T08:36:38;15.05;;;13.55;;
6547;SDS011;3307;52.416;16.862;2023-04-15T08:39:03;14.90;;;13.50;;
6547;SDS011;3307;52.416;16.862;2023-04-15T08:41:33;14.93;;;13.63;;
6547;SDS011;3307;52.416;16.862;2023-04-15T08:44:04;13.23;;;12.00;;
6547;SDS011;3307;52.416;16.862;2023-04-15T08:46:30;12.57;;;11.47;;
6547;SDS011;3307;52.416;16.862;2023-04-15T08:48:58;14.05;;;12.75;;
6547;SDS011;3307;52.416;16.862;2023-04-15T08:51:23;13.77;;;12.53;;
6547;SDS011;3307;52.416;16.862;2023-04-15T08:53:49;13.97;;;12.77;;
6547;SDS011;3307;52.416;16.862;2023-04-15T08:56:15;13.30;;;12.10;;
6547;SDS011;3307;52.416;16.862;2023-04-15T08:58:41;13.07;;;11.87;;
6547;SDS011;3307;52.416;16.862;2023-04-15T09:01:08;13.70;;;12.45;;
6547;SDS011;3307;52.416;16.862;2023-04-15T09:03:36;14.80;;;13.43;;
6547;SDS011;3307;52.416;16.862;2023-04-15T09:06:03;14.30;;;13.00;;
6547;SDS011;3307;52.416;16.862;2023-04-15T09:08:29;13.20;;;12.00;;
6547;SDS011;3307;52.416;16.862;2023-04-15T09:10:55;14.53;;;13.23;;
6547;SDS011;3307;52.416;16.862;2023-04-15T09:13:22;14.25;;;13.05;;
6547;SDS011;3307;52.416;16.862;2023-04-15T09:15:47;14.63;;;13.43;;
6547;SDS011;3307;52.416;16.862;2023-04-15T09:18:13;13.70;;;12.50;;
6547;SDS011;3307;52.416;16.862;2023-04-15T09:20:52;14.82;;;13.50;;
6547;SDS011;3307;52.416;16.862;2023-04-15T09:23:17;13.93;;;12.63;;
6547;SDS011;3307;52.416;16.862;2023-04-15T09:25:43;14.00;;;12.60;;
6547;SDS011;3307;52.416;16.862;2023-04-15T09:28:09;13.90;;;12.70;;
6547;SDS011;3307;52.416;16.862;2023-04-15T09:30:35;14.05;;;12.80;;
6547;SDS011;3307;52.416;16.862;2023-04-15T09:33:01;14.83;;;13.33;;
6547;SDS011;3307;52.416;16.862;2023-04-15T09:35:31;15.27;;;13.98;;
6547;SDS011;3307;52.416;16.862;2023-04-15T09:38:15;14.00;;;12.80;;
6547;SDS011;3307;52.416;16.862;2023-04-15T09:40:40;15.50;;;14.10;;
6547;SDS011;3307;52.416;16.862;2023-04-15T09:43:07;13.90;;;12.50;;
6547;SDS011;3307;52.416;16.862;2023-04-15T09:45:34;14.68;;;13.10;;
6547;SDS011;3307;52.416;16.862;2023-04-15T09:50:48;6.63;;;6.03;;
6547;SDS011;3307;52.416;16.862;2023-04-15T09:53:18;5.23;;;4.73;;
6547;SDS011;3307;52.416;16.862;2023-04-15T09:55:48;4.88;;;4.47;;
6547;SDS011;3307;52.416;16.862;2023-04-15T10:00:51;6.53;;;5.60;;
6547;SDS011;3307;52.416;16.862;2023-04-15T10:03:19;6.80;;;6.20;;
6547;SDS011;3307;52.416;16.862;2023-04-15T10:05:46;7.32;;;6.63;;
6547;SDS011;3307;52.416;16.862;2023-04-15T10:08:14;7.90;;;7.10;;
6547;SDS011;3307;52.416;16.862;2023-04-15T10:10:41;11.07;;;7.82;;
6547;SDS011;3307;52.416;16.862;2023-04-15T10:13:07;7.67;;;6.97;;
6547;SDS011;3307;52.416;16.862;2023-04-15T10:15:33;7.70;;;7.00;;
6547;SDS011;3307;52.416;16.862;2023-04-15T10:17:58;8.70;;;7.90;;
6547;SDS011;3307;52.416;16.862;2023-04-15T10:20:24;8.57;;;7.68;;
6547;SDS011;3307;52.416;16.862;2023-04-15T10:22:50;10.70;;;8.60;;
6547;SDS011;3307;52.416;16.862;2023-04-15T10:25:17;9.65;;;8.65;;
6547;SDS011;3307;52.416;16.862;2023-04-15T10:27:43;10.80;;;9.80;;
6547;SDS011;3307;52.416;16.862;2023-04-15T10:30:09;11.80;;;10.57;;
6547;SDS011;3307;52.416;16.862;2023-04-15T10:32:35;11.05;;;9.95;;
6547;SDS011;3307;52.416;16.862;2023-04-15T10:35:01;12.48;;;11.18;;
6547;SDS011;3307;52.416;16.862;2023-04-15T10:37:35;12.25;;;11.00;;
6547;SDS011;3307;52.416;16.862;2023-04-15T10:40:22;10.57;;;9.07;;
6547;SDS011;3307;52.416;16.862;2023-04-15T10:42:51;9.63;;;8.75;;
6547;SDS011;3307;52.416;16.862;2023-04-15T10:45:17;12.82;;;10.00;;
6547;SDS011;3307;52.416;16.862;2023-04-15T10:47:43;9.03;;;7.70;;
6547;SDS011;3307;52.416;16.862;2023-04-15T10:50:08;8.87;;;8.07;;
6547;SDS011;3307;52.416;16.862;2023-04-15T10:52:34;9.20;;;7.47;;
6547;SDS011;3307;52.416;16.862;2023-04-15T10:57:37;8.90;;;7.93;;
6547;SDS011;3307;52.416;16.862;2023-04-15T11:02:39;9.50;;;8.55;;
6547;SDS011;3307;52.416;16.862;2023-04-15T11:05:05;10.25;;;8.15;;
6547;SDS011;3307;52.416;16.862;2023-04-15T11:12:38;8.20;;;7.50;;
6547;SDS011;3307;52.416;16.862;2023-04-15T11:17:49;6.78;;;6.00;;
6547;SDS011;3307;52.416;16.862;2023-04-15T11:20:15;6.75;;;6.10;;
6547;SDS011;3307;52.416;16.862;2023-04-15T11:22:49;7.10;;;6.40;;
6547;SDS011;3307;52.416;16.862;2023-04-15T11:25:24;6.60;;;5.97;;
6547;SDS011;3307;52.416;16.862;2023-04-15T11:27:52;5.10;;;4.70;;
6547;SDS011;3307;52.416;16.862;2023-04-15T11:30:19;5.88;;;5.30;;
6547;SDS011;3307;52.416;16.862;2023-04-15T11:32:46;6.20;;;5.68;;
6547;SDS011;3307;52.416;16.862;2023-04-15T11:35:12;8.88;;;6.97;;
6547;SDS011;3307;52.416;16.862;2023-04-15T11:37:37;5.80;;;5.30;;
6547;SDS011;3307;52.416;16.862;2023-04-15T11:40:03;6.47;;;5.87;;
6547;SDS011;3307;52.416;16.862;2023-04-15T11:42:29;7.23;;;6.63;;
6547;SDS011;3307;52.416;16.862;2023-04-15T11:45:10;6.77;;;6.07;;
6547;SDS011;3307;52.416;16.862;2023-04-15T11:47:37;6.50;;;5.90;;
6547;SDS011;3307;52.416;16.862;2023-04-15T11:50:13;7.30;;;6.60;;
6547;SDS011;3307;52.416;16.862;2023-04-15T11:52:38;8.50;;;7.20;;
6547;SDS011;3307;52.416;16.862;2023-04-15T11:55:05;7.63;;;6.87;;
6547;SDS011;3307;52.416;16.862;2023-04-15T11:57:32;8.50;;;7.75;;
6547;SDS011;3307;52.416;16.862;2023-04-15T11:59:59;6.40;;;5.90;;
6547;SDS011;3307;52.416;16.862;2023-04-15T12:02:30;7.37;;;6.40;;
6547;SDS011;3307;52.416;16.862;2023-04-15T12:05:03;6.32;;;5.72;;
6547;SDS011;3307;52.416;16.862;2023-04-15T12:07:29;7.07;;;6.18;;
6547;SDS011;3307;52.416;16.862;2023-04-15T12:09:55;6.60;;;6.00;;
6547;SDS011;3307;52.416;16.862;2023-04-15T12:12:21;7.35;;;6.65;;
6547;SDS011;3307;52.416;16.862;2023-04-15T12:14:47;6.07;;;5.40;;
6547;SDS011;3307;52.416;16.862;2023-04-15T12:17:15;5.57;;;5.07;;
6547;SDS011;3307;52.416;16.862;2023-04-15T12:19:41;5.10;;;4.60;;
6547;SDS011;3307;52.416;16.862;2023-04-15T12:24:40;5.65;;;5.15;;
6547;SDS011;3307;52.416;16.862;2023-04-15T12:27:11;8.00;;;5.40;;
6547;SDS011;3307;52.416;16.862;2023-04-15T12:29:38;7.00;;;6.30;;
6547;SDS011;3307;52.416;16.862;2023-04-15T12:32:08;6.82;;;6.18;;
6547;SDS011;3307;52.416;16.862;2023-04-15T12:34:38;7.65;;;6.95;;
6547;SDS011;3307;52.416;16.862;2023-04-15T12:37:22;7.13;;;6.40;;
6547;SDS011;3307;52.416;16.862;2023-04-15T12:39:48;7.83;;;7.10;;
6547;SDS011;3307;52.416;16.862;2023-04-15T12:42:14;7.60;;;6.85;;
6547;SDS011;3307;52.416;16.862;2023-04-15T12:44:40;8.37;;;7.57;;
6547;SDS011;3307;52.416;16.862;2023-04-15T12:47:06;8.33;;;7.57;;
6547;SDS011;3307;52.416;16.862;2023-04-15T12:49:32;9.65;;;8.38;;
6547;SDS011;3307;52.416;16.862;2023-04-15T12:51:58;9.07;;;7.70;;
6547;SDS011;3307;52.416;16.862;2023-04-15T12:54:24;8.55;;;7.75;;
6547;SDS011;3307;52.416;16.862;2023-04-15T12:56:51;9.63;;;8.02;;
6547;SDS011;3307;52.416;16.862;2023-04-15T12:59:17;9.73;;;7.87;;
6547;SDS011;3307;52.416;16.862;2023-04-15T13:01:43;11.90;;;10.80;;
6547;SDS011;3307;52.416;16.862;2023-04-15T13:04:09;12.13;;;9.50;;
6547;SDS011;3307;52.416;16.862;2023-04-15T13:06:34;9.60;;;8.70;;
6547;SDS011;3307;52.416;16.862;2023-04-15T13:09:00;10.03;;;9.10;;
6547;SDS011;3307;52.416;16.862;2023-04-15T13:11:26;10.20;;;9.20;;
6547;SDS011;3307;52.416;16.862;2023-04-15T13:13:54;10.20;;;9.30;;
6547;SDS011;3307;52.416;16.862;2023-04-15T13:16:20;10.70;;;9.60;;
6547;SDS011;3307;52.416;16.862;2023-04-15T13:18:47;10.90;;;9.80;;
6547;SDS011;3307;52.416;16.862;2023-04-15T13:21:12;10.65;;;9.65;;
6547;SDS011;3307;52.416;16.862;2023-04-15T13:23:38;11.13;;;9.33;;
6547;SDS011;3307;52.416;16.862;2023-04-15T13:26:04;9.23;;;8.43;;
6547;SDS011;3307;52.416;16.862;2023-04-15T13:28:30;10.10;;;9.20;;
6547;SDS011;3307;52.416;16.862;2023-04-15T13:30:55;9.97;;;8.97;;
6547;SDS011;3307;52.416;16.862;2023-04-15T13:33:21;9.73;;;8.87;;
6547;SDS011;3307;52.416;16.862;2023-04-15T13:35:46;9.80;;;8.80;;
6547;SDS011;3307;52.416;16.862;2023-04-15T13:38:12;9.17;;;8.37;;
6547;SDS011;3307;52.416;16.862;2023-04-15T13:40:37;9.27;;;8.57;;
6547;SDS011;3307;52.416;16.862;2023-04-15T13:43:02;8.63;;;7.73;;
6547;SDS011;3307;52.416;16.862;2023-04-15T13:45:28;8.87;;;8.07;;
6547;SDS011;3307;52.416;16.862;2023-04-15T13:47:54;8.73;;;7.97;;
6547;SDS011;3307;52.416;16.862;2023-04-15T13:50:20;9.02;;;8.13;;
6547;SDS011;3307;52.416;16.862;2023-04-15T13:52:46;9.10;;;8.30;;
6547;SDS011;3307;52.416;16.862;2023-04-15T13:55:11;11.20;;;8.63;;
6547;SDS011;3307;52.416;16.862;2023-04-15T13:57:37;8.07;;;7.37;;
6547;SDS011;3307;52.416;16.862;2023-04-15T14:00:02;9.00;;;8.30;;
6547;SDS011;3307;52.416;16.862;2023-04-15T14:02:28;9.43;;;8.52;;
6547;SDS011;3307;52.416;16.862;2023-04-15T14:04:54;9.23;;;8.33;;
6547;SDS011;3307;52.416;16.862;2023-04-15T14:07:20;9.57;;;8.57;;
6547;SDS011;3307;52.416;16.862;2023-04-15T14:09:45;8.90;;;8.20;;
6547;SDS011;3307;52.416;16.862;2023-04-15T14:12:12;11.32;;;9.40;;
6547;SDS011;3307;52.416;16.862;2023-04-15T14:14:37;10.33;;;9.23;;
6547;SDS011;3307;52.416;16.862;2023-04-15T14:17:03;11.77;;;10.63;;
6547;SDS011;3307;52.416;16.862;2023-04-15T14:19:29;11.85;;;10.65;;
6547;SDS011;3307;52.416;16.862;2023-04-15T14:21:55;9.80;;;9.00;;
6547;SDS011;3307;52.416;16.862;2023-04-15T14:24:21;10.10;;;9.20;;
6547;SDS011;3307;52.416;16.862;2023-04-15T14:26:46;8.73;;;8.07;;
6547;SDS011;3307;52.416;16.862;2023-04-15T14:29:12;54.90;;;36.20;;
6547;SDS011;3307;52.416;16.862;2023-04-15T14:31:37;9.27;;;8.47;;
6547;SDS011;3307;52.416;16.862;2023-04-15T14:34:03;11.13;;;10.10;;
6547;SDS011;3307;52.416;16.862;2023-04-15T14:36:28;15.00;;;13.40;;
6547;SDS011;3307;52.416;16.862;2023-04-15T14:38:54;12.70;;;11.50;;
6547;SDS011;3307;52.416;16.862;2023-04-15T14:41:19;10.77;;;9.80;;
6547;SDS011;3307;52.416;16.862;2023-04-15T14:43:46;10.10;;;9.20;;
6547;SDS011;3307;52.416;16.862;2023-04-15T14:46:11;13.20;;;11.80;;
6547;SDS011;3307;52.416;16.862;2023-04-15T14:48:38;11.32;;;10.38;;
6547;SDS011;3307;52.416;16.862;2023-04-15T14:51:04;12.27;;;11.17;;
6547;SDS011;3307;52.416;16.862;2023-04-15T14:53:29;9.90;;;9.00;;
6547;SDS011;3307;52.416;16.862;2023-04-15T14:55:55;13.07;;;11.93;;
6547;SDS011;3307;52.416;16.862;2023-04-15T14:58:20;12.27;;;11.07;;